Time;durP1;ratioP1;P1;durP2;ratioP2;P2;SDS_P1;SDS_P2;PMS_P1;PMS_P2;Temp;Humidity;BMP_temperature;BMP_pressure;BME280_temperature;BME280_humidity;BME280_pressure;Samples;Min_cycle;Max_cycle;Signal;HPM_P1;HPM_P2
2021/09/27 00:03:28;630441.00;2.10;1086.81;0.00;0.00;0.62;;;;;19.70;6.90;;;;;;2265881;61;1408;-91
2021/09/27 00:05:56;216499.00;0.72;374.32;0.00;0.00;0.62;;;;;19.80;6.50;;;;;;2268208;61;1775;-89
2021/09/27 00:08:24;250780.00;0.84;433.29;0.00;0.00;0.62;;;;;19.90;6.10;;;;;;2268217;61;1139;-89
2021/09/27 00:10:57;215077.00;0.72;371.87;0.00;0.00;0.62;;;;;20.30;5.10;;;;;;2268169;61;1989;-91
2021/09/27 00:13:27;145506.00;0.49;252.06;0.00;0.00;0.62;;;;;20.50;4.20;;;;;;2268271;61;1349;-91
2021/09/27 00:15:56;283850.00;0.95;490.16;0.00;0.00;0.62;;;;;20.70;3.10;;;;;;2268231;61;1128;-90
2021/09/27 00:18:25;156750.00;0.52;271.44;0.00;0.00;0.62;;;;;20.80;3.40;;;;;;2268191;61;1237;-91
2021/09/27 00:20:57;197904.00;0.66;342.32;0.00;0.00;0.62;;;;;20.90;2.90;;;;;;2268101;61;1587;-91
2021/09/27 00:23:27;142659.00;0.48;247.15;0.00;0.00;0.62;;;;;20.90;2.80;;;;;;2268193;61;1430;-90
2021/09/27 00:25:54;242654.00;0.81;419.32;0.00;0.00;0.62;;;;;21.00;2.40;;;;;;2268151;61;1614;-88
2021/09/27 00:28:22;154206.00;0.51;267.06;0.00;0.00;0.62;;;;;21.20;1.50;;;;;;2268163;61;960;-89
2021/09/27 00:30:50;275772.00;0.92;476.27;30391.00;0.10;53.26;;;;;21.00;1.40;;;;;;2268139;61;1991;-90
2021/09/27 00:33:18;158657.00;0.53;274.73;0.00;0.00;0.62;;;;;20.70;2.80;;;;;;2268119;61;1300;-90
2021/09/27 00:35:47;332638.00;1.11;574.02;0.00;0.00;0.62;;;;;20.30;3.90;;;;;;2268089;61;1105;-91
2021/09/27 00:38:16;527796.00;1.76;909.69;79925.00;0.27;138.91;;;;;19.90;5.20;;;;;;2268211;61;1029;-90
2021/09/27 00:40:47;238026.00;0.79;411.36;0.00;0.00;0.62;;;;;19.70;6.20;;;;;;2268107;61;1678;-90
2021/09/27 00:43:14;313526.00;1.05;541.17;0.00;0.00;0.62;;;;;19.80;6.00;;;;;;2268122;61;1674;-90
2021/09/27 00:45:44;281149.00;0.94;485.51;0.00;0.00;0.62;;;;;20.10;5.40;;;;;;2268130;61;1124;-91
2021/09/27 00:48:12;479564.00;1.60;826.65;152967.00;0.51;264.92;;;;;20.30;5.00;;;;;;2268114;61;1154;-90
2021/09/27 00:50:42;236458.00;0.79;408.66;0.00;0.00;0.62;;;;;20.40;4.20;;;;;;2268057;61;2008;-90
2021/09/27 00:53:18;253724.00;0.85;438.36;0.00;0.00;0.62;;;;;20.40;2.90;;;;;;2267960;61;1668;-89
2021/09/27 00:55:45;182247.00;0.61;315.36;0.00;0.00;0.62;;;;;20.50;4.30;;;;;;2268076;61;1616;-90
2021/09/27 00:58:16;229775.00;0.77;397.16;0.00;0.00;0.62;;;;;20.80;3.00;;;;;;2268013;61;1689;-91
2021/09/27 01:00:44;119362.00;0.40;206.98;0.00;0.00;0.62;;;;;21.00;2.10;;;;;;2268098;61;1005;-92
2021/09/27 01:03:11;81007.00;0.27;140.78;0.00;0.00;0.62;;;;;21.10;1.50;;;;;;2268160;61;1281;-90
2021/09/27 01:05:49;212787.00;0.71;367.93;0.00;0.00;0.62;;;;;21.00;2.00;;;;;;2268053;61;1001;-91
2021/09/27 01:08:28;98398.00;0.33;170.81;0.00;0.00;0.62;;;;;20.90;1.80;;;;;;2268017;61;1757;-90
2021/09/27 01:11:16;419518.00;1.40;723.36;44192.00;0.15;77.14;;;;;20.80;2.30;;;;;;2268028;61;1923;-91
2021/09/27 01:14:02;296836.00;0.99;512.48;0.00;0.00;0.62;;;;;20.80;2.50;;;;;;2268125;61;1449;-92
2021/09/27 01:16:38;323887.00;1.08;558.98;0.00;0.00;0.62;;;;;20.70;2.00;;;;;;2268014;61;1609;-90
2021/09/27 01:19:37;295718.00;0.99;510.56;0.00;0.00;0.62;;;;;20.80;1.30;;;;;;2268301;61;1135;-90
2021/09/27 01:22:17;625968.00;2.09;1079.08;85596.00;0.29;148.70;;;;;20.50;2.50;;;;;;2268678;61;1390;-90
2021/09/27 01:25:07;246004.00;0.82;425.08;0.00;0.00;0.62;;;;;19.90;4.30;;;;;;2268702;61;1754;-91
2021/09/27 01:28:21;227691.00;0.76;393.58;0.00;0.00;0.62;;;;;19.90;4.60;;;;;;2268648;61;1159;-90
2021/09/27 01:31:27;251023.00;0.84;433.71;0.00;0.00;0.62;;;;;20.00;4.40;;;;;;2268694;61;1952;-90
2021/09/27 01:34:02;288345.00;0.96;497.88;0.00;0.00;0.62;;;;;20.20;4.30;;;;;;2268734;61;1732;-91
2021/09/27 01:36:39;303569.00;1.01;524.05;11283.00;0.04;20.17;;;;;20.00;4.20;;;;;;2268782;61;1006;-91
2021/09/27 01:39:12;109140.00;0.36;189.35;0.00;0.00;0.62;;;;;20.10;4.00;;;;;;2268696;61;1035;-91
2021/09/27 01:41:49;508288.00;1.69;876.09;19353.00;0.06;34.15;;;;;19.90;4.60;;;;;;2268587;61;1625;-91
2021/09/27 01:44:29;257362.00;0.86;444.61;0.00;0.00;0.62;;;;;19.70;5.20;;;;;;2268735;61;1043;-92
2021/09/27 01:46:59;177226.00;0.59;306.71;0.00;0.00;0.62;;;;;19.70;5.40;;;;;;2268650;61;1711;-91
2021/09/27 01:49:38;387845.00;1.29;668.91;54739.00;0.18;95.38;;;;;19.40;5.80;;;;;;2268541;61;1615;-90
2021/09/27 01:52:12;735626.00;2.45;1269.07;189544.00;0.63;327.92;;;;;19.50;5.90;;;;;;2268464;61;2018;-89
2021/09/27 01:54:45;499508.00;1.67;860.98;0.00;0.00;0.62;;;;;19.50;5.80;;;;;;2268523;61;1601;-90
2021/09/27 01:57:20;531581.00;1.77;916.22;70717.00;0.24;123.00;;;;;19.50;6.20;;;;;;2268470;61;1747;-91
2021/09/27 01:59:56;141289.00;0.47;244.79;0.00;0.00;0.62;;;;;19.50;5.90;;;;;;2268578;61;1039;-92
2021/09/27 02:02:35;210704.00;0.70;364.35;0.00;0.00;0.62;;;;;19.30;6.30;;;;;;2268481;61;1583;-89
2021/09/27 02:05:11;525973.00;1.75;906.55;0.00;0.00;0.62;;;;;19.30;6.20;;;;;;2268453;61;1037;-90
2021/09/27 02:07:46;471148.00;1.57;812.16;29662.00;0.10;52.00;;;;;19.30;6.30;;;;;;2268562;61;1020;-91
2021/09/27 02:10:17;332151.00;1.11;573.18;0.00;0.00;0.62;;;;;19.30;6.70;;;;;;2268574;61;1663;-90
2021/09/27 02:12:51;308871.00;1.03;533.17;0.00;0.00;0.62;;;;;19.10;7.80;;;;;;2268505;61;1977;-90
2021/09/27 02:15:25;211010.00;0.70;364.87;0.00;0.00;0.62;;;;;19.40;6.90;;;;;;2268546;61;1019;-92
2021/09/27 05:44:13;418325.00;1.39;721.31;0.00;0.00;0.62;;;;;19.40;4.10;;;;;;2286644;60;1313;-90
2021/09/27 05:47:08;571640.00;1.91;985.28;76736.00;0.26;133.40;;;;;19.50;5.30;;;;;;2284828;60;1007;-90
2021/09/27 05:49:46;640651.00;2.14;1104.46;43992.00;0.15;76.79;;;;;20.20;4.00;;;;;;2284769;60;1606;-90
2021/09/27 05:52:25;407062.00;1.36;701.95;41542.00;0.14;72.56;;;;;20.70;2.60;;;;;;2284718;60;1992;-90
2021/09/27 05:55:04;308876.00;1.03;533.18;0.00;0.00;0.62;;;;;21.30;1.10;;;;;;2284750;60;1379;-90
2021/09/27 05:57:40;531435.00;1.77;915.96;0.00;0.00;0.62;;;;;22.00;1.00;;;;;;2284810;60;942;-91
2021/09/27 06:00:17;373148.00;1.24;643.65;0.00;0.00;0.62;;;;;22.30;1.00;;;;;;2284711;60;1781;-90
2021/09/27 06:02:56;619034.00;2.06;1067.10;0.00;0.00;0.62;;;;;22.70;1.00;;;;;;2284684;60;1407;-91
2021/09/27 06:05:30;376275.00;1.25;649.02;0.00;0.00;0.62;;;;;23.20;1.00;;;;;;2284694;60;1119;-91
2021/09/27 06:08:04;673701.00;2.25;1161.66;69664.00;0.23;121.18;;;;;23.80;1.00;;;;;;2280041;60;938;-90
2021/09/27 06:10:38;644432.00;2.15;1111.00;20608.00;0.07;36.32;;;;;23.90;1.00;;;;;;2280135;60;972;-89
2021/09/27 06:13:19;297131.00;0.99;512.99;0.00;0.00;0.62;;;;;23.70;1.00;;;;;;2280008;60;1980;-89
2021/09/27 06:15:50;521772.00;1.74;899.32;0.00;0.00;0.62;;;;;24.20;1.00;;;;;;2280128;60;1058;-90
2021/09/27 06:18:37;297095.00;0.99;512.93;0.00;0.00;0.62;;;;;24.40;1.00;;;;;;2280003;60;1875;-89
2021/09/27 06:21:42;768948.00;2.56;1327.02;64648.00;0.22;112.51;;;;;24.10;1.00;;;;;;2279352;60;1638;-91
2021/09/27 06:24:23;358130.00;1.19;617.83;0.00;0.00;0.62;;;;;23.40;1.00;;;;;;2279860;60;1823;-90
2021/09/27 06:26:57;298167.00;0.99;514.77;0.00;0.00;0.62;;;;;23.00;1.00;;;;;;2284002;60;1026;-91
2021/09/27 06:29:33;96302.00;0.32;167.19;0.00;0.00;0.62;;;;;23.50;1.00;;;;;;2284616;60;1110;-90
2021/09/27 06:32:10;86677.00;0.29;150.57;0.00;0.00;0.62;;;;;24.10;1.00;;;;;;2284541;60;1913;-89
2021/09/27 06:34:46;255204.00;0.85;440.90;25569.00;0.09;44.91;;;;;24.30;1.00;;;;;;2284641;60;989;-91
2021/09/27 06:37:16;168052.00;0.56;290.91;0.00;0.00;0.62;;;;;24.70;1.00;;;;;;2284605;60;921;-89
2021/09/27 06:39:43;155608.00;0.52;269.47;0.00;0.00;0.62;;;;;24.70;1.00;;;;;;2284532;60;998;-91
2021/09/27 06:42:10;180225.00;0.60;311.88;0.00;0.00;0.62;;;;;24.70;1.00;;;;;;2284362;60;1268;-91
2021/09/27 06:44:37;160282.00;0.53;277.53;7598.00;0.03;13.79;;;;;24.90;1.00;;;;;;2275636;61;972;-90
2021/09/27 06:47:06;219681.00;0.73;379.79;0.00;0.00;0.62;;;;;25.10;1.00;;;;;;2275728;61;1023;-91
2021/09/27 06:49:32;198924.00;0.66;344.07;0.00;0.00;0.62;;;;;25.30;1.00;;;;;;2275801;61;1236;-90
2021/09/27 06:52:00;192818.00;0.64;333.56;0.00;0.00;0.62;;;;;25.10;1.00;;;;;;2275656;61;1911;-91
2021/09/27 06:54:27;155210.00;0.52;268.79;0.00;0.00;0.62;;;;;25.10;1.00;;;;;;2275654;61;1753;-91
2021/09/27 06:56:54;192309.00;0.64;332.68;0.00;0.00;0.62;;;;;24.50;1.00;;;;;;2275692;61;966;-90
2021/09/27 06:59:21;39694.00;0.13;69.36;0.00;0.00;0.62;;;;;24.20;1.00;;;;;;2267484;61;1018;-89
2021/09/27 07:01:49;235665.00;0.79;407.29;0.00;0.00;0.62;;;;;24.10;1.00;;;;;;2260415;61;1312;-90
2021/09/27 07:04:17;163374.00;0.54;282.85;0.00;0.00;0.62;;;;;24.30;1.00;;;;;;2267483;61;1040;-91
2021/09/27 07:06:45;311121.00;1.04;537.04;40286.00;0.13;70.38;;;;;24.50;1.00;;;;;;2267407;61;1591;-89
2021/09/27 07:09:12;132377.00;0.44;229.43;0.00;0.00;0.62;;;;;24.70;1.00;;;;;;2267550;61;1014;-91
2021/09/27 07:11:41;522829.00;1.74;901.14;89999.00;0.30;156.31;;;;;24.70;1.00;;;;;;2267525;61;1553;-89
2021/09/27 07:14:08;224459.00;0.75;388.02;0.00;0.00;0.62;;;;;24.50;1.00;;;;;;2267492;61;2021;-90
2021/09/27 07:16:36;135601.00;0.45;234.99;0.00;0.00;0.62;;;;;24.00;1.00;;;;;;2268869;61;1619;-89
2021/09/27 07:19:04;74106.00;0.25;128.86;0.00;0.00;0.62;;;;;24.00;1.00;;;;;;2280324;60;1659;-90
2021/09/27 07:21:32;90194.00;0.30;156.64;0.00;0.00;0.62;;;;;24.00;1.00;;;;;;2284287;60;983;-89
2021/09/27 07:24:00;212349.00;0.71;367.18;0.00;0.00;0.62;;;;;24.50;1.00;;;;;;2284277;60;1420;-91
2021/09/27 07:26:27;102118.00;0.34;177.23;0.00;0.00;0.62;;;;;24.90;1.00;;;;;;2279610;60;1044;-91
2021/09/27 07:28:56;207993.00;0.69;359.68;0.00;0.00;0.62;;;;;25.10;1.00;;;;;;2279607;60;1136;-90
2021/09/27 07:31:24;144280.00;0.48;249.95;0.00;0.00;0.62;;;;;25.50;1.00;;;;;;2275386;61;989;-91
2021/09/27 07:33:52;267274.00;0.89;461.66;0.00;0.00;0.62;;;;;25.90;1.00;;;;;;2275503;61;2009;-90
2021/09/27 07:36:19;128720.00;0.43;223.12;0.00;0.00;0.62;;;;;26.30;1.00;;;;;;2275486;61;1617;-90
2021/09/27 07:38:47;302383.00;1.01;522.02;49230.00;0.16;85.85;;;;;26.40;1.00;;;;;;2275519;61;1604;-89
2021/09/27 07:41:14;96593.00;0.32;167.69;0.00;0.00;0.62;;;;;26.10;1.00;;;;;;2268798;61;1017;-91
2021/09/27 07:43:41;278813.00;0.93;481.50;0.00;0.00;0.62;;;;;26.40;1.00;;;;;;2276004;61;1439;-90
2021/09/27 07:46:08;109308.00;0.36;189.64;0.00;0.00;0.62;;;;;26.80;1.00;;;;;;2267440;61;1040;-92
2021/09/27 07:48:36;224226.00;0.75;387.61;0.00;0.00;0.62;;;;;26.90;1.00;;;;;;2264382;61;988;-91
2021/09/27 07:51:02;62206.00;0.21;108.29;0.00;0.00;0.62;;;;;26.60;1.00;;;;;;2271443;61;1017;-91
2021/09/27 07:53:30;122858.00;0.41;213.01;0.00;0.00;0.62;;;;;26.40;1.00;;;;;;2271275;61;2010;-91
2021/09/27 07:55:58;199008.00;0.66;344.22;0.00;0.00;0.62;;;;;26.60;1.00;;;;;;2271477;61;938;-91
2021/09/27 07:58:25;166985.00;0.56;289.07;0.00;0.00;0.62;;;;;26.60;1.00;;;;;;2263360;61;977;-90
2021/09/27 08:00:54;129282.00;0.43;224.09;0.00;0.00;0.62;;;;;26.80;1.00;;;;;;2259327;61;969;-91
2021/09/27 08:03:22;146002.00;0.49;252.92;0.00;0.00;0.62;;;;;27.30;1.00;;;;;;2260787;61;1320;-91
2021/09/27 08:05:50;310644.00;1.04;536.22;0.00;0.00;0.62;;;;;27.30;1.00;;;;;;2263265;61;972;-91
2021/09/27 08:08:18;236564.00;0.79;408.84;41025.00;0.14;71.66;;;;;27.30;1.00;;;;;;2263360;61;986;-90
2021/09/27 08:10:51;114303.00;0.38;198.25;0.00;0.00;0.62;;;;;27.30;1.00;;;;;;2263350;61;1005;-91
2021/09/27 08:13:19;178743.00;0.60;309.32;0.00;0.00;0.62;;;;;27.70;1.00;;;;;;2263217;61;1916;-91
2021/09/27 08:15:49;224382.00;0.75;387.88;0.00;0.00;0.62;;;;;27.70;1.00;;;;;;2263994;61;906;-91
2021/09/27 08:18:19;47495.00;0.16;82.85;0.00;0.00;0.62;;;;;27.50;1.00;;;;;;2268151;61;960;-92
2021/09/27 08:20:49;119116.00;0.40;206.56;0.00;0.00;0.62;;;;;27.20;1.00;;;;;;2272233;61;1009;-93
2021/09/27 08:23:16;341804.00;1.14;589.77;0.00;0.00;0.62;;;;;27.00;1.00;;;;;;2269100;61;1312;-91
2021/09/27 08:25:44;93234.00;0.31;161.89;0.00;0.00;0.62;;;;;26.90;1.00;;;;;;2275483;61;1024;-91
2021/09/27 08:28:14;46441.00;0.15;81.03;0.00;0.00;0.62;;;;;26.80;1.00;;;;;;2275354;61;1021;-91
2021/09/27 08:30:46;57658.00;0.19;100.43;0.00;0.00;0.62;;;;;26.60;1.00;;;;;;2276005;61;1027;-91
2021/09/27 08:33:13;276517.00;0.92;477.55;0.00;0.00;0.62;;;;;26.50;1.00;;;;;;2276022;61;1998;-91
2021/09/27 08:35:41;84229.00;0.28;146.34;0.00;0.00;0.62;;;;;26.10;1.00;;;;;;2267908;61;1040;-90
2021/09/27 08:38:09;163126.00;0.54;282.43;0.00;0.00;0.62;;;;;26.10;1.00;;;;;;2267976;61;1077;-92
2021/09/27 08:41:06;137113.00;0.46;237.59;0.00;0.00;0.62;;;;;25.90;1.00;;;;;;2269508;61;990;-92
2021/09/27 08:43:52;357852.00;1.19;617.36;0.00;0.00;0.62;;;;;25.90;1.00;;;;;;2251740;61;1291;-91
2021/09/27 08:46:26;129795.00;0.43;224.98;0.00;0.00;0.62;;;;;25.80;1.00;;;;;;2241357;61;1177;-90
2021/09/27 08:49:02;57088.00;0.19;99.44;0.00;0.00;0.62;;;;;25.90;1.00;;;;;;2248033;61;1144;-89
2021/09/27 08:51:31;235849.00;0.79;407.61;0.00;0.00;0.62;;;;;26.00;1.00;;;;;;2247917;61;1025;-92
2021/09/27 08:53:58;67209.00;0.22;116.94;0.00;0.00;0.62;;;;;25.80;1.00;;;;;;2253483;61;1997;-92
2021/09/27 08:56:31;79595.00;0.27;138.34;0.00;0.00;0.62;;;;;25.70;1.00;;;;;;2242018;61;999;-90
2021/09/27 08:59:06;124585.00;0.42;215.99;0.00;0.00;0.62;;;;;25.70;1.00;;;;;;2251987;61;1035;-90
2021/09/27 09:01:51;176943.00;0.59;306.22;0.00;0.00;0.62;;;;;25.90;1.00;;;;;;2249903;61;959;-90
2021/09/27 09:04:27;237553.00;0.79;410.54;0.00;0.00;0.62;;;;;25.50;1.00;;;;;;2260025;61;977;-90
2021/09/27 09:07:01;214287.00;0.71;370.51;0.00;0.00;0.62;;;;;25.20;1.00;;;;;;2260012;61;1022;-91
2021/09/27 09:09:37;146519.00;0.49;253.81;0.00;0.00;0.62;;;;;25.60;1.00;;;;;;2250129;61;1021;-91
2021/09/27 09:12:09;206036.00;0.69;356.31;0.00;0.00;0.62;;;;;25.60;1.00;;;;;;2251937;61;1425;-91
2021/09/27 09:14:46;63104.00;0.21;109.84;0.00;0.00;0.62;;;;;25.40;1.00;;;;;;2251962;61;1926;-90
2021/09/27 09:17:20;207031.00;0.69;358.03;0.00;0.00;0.62;;;;;25.30;1.00;;;;;;2252085;61;1036;-89
2021/09/27 09:19:48;321891.00;1.07;555.55;0.00;0.00;0.62;;;;;25.10;1.00;;;;;;2255288;61;932;-90
2021/09/27 09:22:25;109900.00;0.37;190.66;0.00;0.00;0.62;;;;;25.20;1.00;;;;;;2259835;61;1383;-90
2021/09/27 09:24:52;90224.00;0.30;156.69;0.00;0.00;0.62;;;;;25.10;1.00;;;;;;2267669;61;1173;-89
2021/09/27 09:27:19;338585.00;1.13;584.24;0.00;0.00;0.62;;;;;24.50;1.00;;;;;;2267974;61;988;-89
2021/09/27 09:29:47;271027.00;0.90;468.11;0.00;0.00;0.62;;;;;24.70;1.00;;;;;;2270469;61;1604;-91
2021/09/27 09:32:19;13648.00;0.05;24.27;0.00;0.00;0.62;;;;;25.20;1.00;;;;;;2265976;61;1387;-89
2021/09/27 09:34:48;144538.00;0.48;250.39;0.00;0.00;0.62;;;;;25.70;1.00;;;;;;2272014;61;2014;-91
2021/09/27 09:37:23;243716.00;0.81;421.14;39502.00;0.13;69.03;;;;;25.60;1.00;;;;;;2259953;61;1001;-91
2021/09/27 09:40:03;169512.00;0.57;293.43;33479.00;0.11;58.60;;;;;25.70;1.00;;;;;;2262226;61;982;-91
2021/09/27 09:42:33;256772.00;0.86;443.60;0.00;0.00;0.62;;;;;25.70;1.00;;;;;;2267914;61;1282;-93
2021/09/27 09:45:15;260704.00;0.87;450.36;0.00;0.00;0.62;;;;;25.80;1.00;;;;;;2267909;61;981;-90
2021/09/27 09:47:44;132230.00;0.44;229.17;0.00;0.00;0.62;;;;;25.70;1.00;;;;;;2268073;61;939;-91
2021/09/27 09:50:13;78284.00;0.26;136.07;0.00;0.00;0.62;;;;;25.80;1.00;;;;;;2259775;61;1010;-90
2021/09/27 09:52:44;113662.00;0.38;197.15;0.00;0.00;0.62;;;;;25.60;1.00;;;;;;2261517;61;1991;-90
2021/09/27 09:55:20;215662.00;0.72;372.88;0.00;0.00;0.62;;;;;25.60;1.00;;;;;;2257148;61;1127;-89
2021/09/27 09:57:57;210172.00;0.70;363.43;73460.00;0.24;127.74;;;;;25.70;1.00;;;;;;2257100;61;975;-89
2021/09/27 10:00:42;130521.00;0.44;226.23;0.00;0.00;0.62;;;;;25.50;1.00;;;;;;2263813;61;1090;-90
2021/09/27 10:03:14;144728.00;0.48;250.72;0.00;0.00;0.62;;;;;25.40;1.00;;;;;;2263803;61;1326;-89
2021/09/27 10:05:44;115834.00;0.39;200.90;0.00;0.00;0.62;;;;;25.80;1.00;;;;;;2253869;61;995;-90
2021/09/27 10:08:19;134487.00;0.45;233.07;20698.00;0.07;36.48;;;;;26.00;1.00;;;;;;2255534;61;941;-88
2021/09/27 10:10:56;53496.00;0.18;93.23;0.00;0.00;0.62;;;;;25.50;1.00;;;;;;2253079;61;935;-90
2021/09/27 10:13:37;190469.00;0.63;329.52;0.00;0.00;0.62;;;;;25.30;1.00;;;;;;2266509;61;1993;-90
2021/09/27 10:16:07;165459.00;0.55;286.44;0.00;0.00;0.62;;;;;25.40;1.00;;;;;;2271799;61;1087;-90
2021/09/27 10:18:38;184487.00;0.61;319.22;0.00;0.00;0.62;;;;;25.60;1.00;;;;;;2271856;61;920;-89
2021/09/27 10:21:23;189196.00;0.63;327.32;0.00;0.00;0.62;;;;;25.10;1.00;;;;;;2271903;61;1012;-90
2021/09/27 10:23:53;166360.00;0.55;288.00;0.00;0.00;0.62;;;;;25.20;1.00;;;;;;2268264;61;1475;-89
2021/09/27 10:26:27;91950.00;0.31;159.67;0.00;0.00;0.62;;;;;25.50;1.00;;;;;;2275116;60;997;-90
2021/09/27 10:29:01;488425.00;1.63;841.90;84868.00;0.28;147.45;;;;;25.80;1.00;;;;;;2284607;60;925;-90
2021/09/27 10:31:29;96180.00;0.32;166.98;0.00;0.00;0.62;;;;;26.10;1.00;;;;;;2280740;60;928;-90
2021/09/27 10:34:02;192960.00;0.64;333.80;0.00;0.00;0.62;;;;;26.30;1.00;;;;;;2284547;60;1919;-90
2021/09/27 10:36:35;128715.00;0.43;223.11;0.00;0.00;0.62;;;;;26.40;1.00;;;;;;2284546;60;921;-89
2021/09/27 10:39:05;117281.00;0.39;203.39;0.00;0.00;0.62;;;;;26.50;1.00;;;;;;2284563;60;1184;-92
2021/09/27 10:41:37;193803.00;0.65;335.26;0.00;0.00;0.62;;;;;26.30;1.00;;;;;;2284560;60;1053;-91
2021/09/27 10:44:12;96836.00;0.32;168.11;0.00;0.00;0.62;;;;;26.20;1.00;;;;;;2279851;60;1420;-90
2021/09/27 10:46:41;135220.00;0.45;234.33;0.00;0.00;0.62;;;;;26.20;1.00;;;;;;2271677;61;1030;-90
2021/09/27 10:49:17;80999.00;0.27;140.76;0.00;0.00;0.62;;;;;26.20;1.00;;;;;;2265008;61;1107;-89
2021/09/27 10:51:51;95048.00;0.32;165.02;0.00;0.00;0.62;;;;;26.10;1.00;;;;;;2264776;61;1006;-91
2021/09/27 10:54:27;37892.00;0.13;66.24;0.00;0.00;0.62;;;;;26.30;1.00;;;;;;2265050;61;2006;-91
2021/09/27 10:56:57;158219.00;0.53;273.97;0.00;0.00;0.62;;;;;26.40;1.00;;;;;;2271748;61;1013;-90
2021/09/27 10:59:33;298346.00;0.99;515.08;33896.00;0.11;59.33;;;;;26.30;1.00;;;;;;2268414;61;943;-90
2021/09/27 11:02:15;42822.00;0.14;74.77;0.00;0.00;0.62;;;;;26.40;1.00;;;;;;2273503;61;1416;-91
2021/09/27 11:04:45;210212.00;0.70;363.50;0.00;0.00;0.62;;;;;26.50;1.00;;;;;;2273036;60;1005;-90
2021/09/27 11:07:28;304463.00;1.01;525.59;0.00;0.00;0.62;;;;;26.30;1.00;;;;;;2284382;60;934;-89
2021/09/27 11:09:59;72197.00;0.24;125.56;0.00;0.00;0.62;;;;;26.30;1.00;;;;;;2284013;60;923;-91
2021/09/27 11:12:37;164161.00;0.55;284.21;0.00;0.00;0.62;;;;;26.50;1.00;;;;;;2284369;60;1315;-89
2021/09/27 11:15:23;38462.00;0.13;67.23;0.00;0.00;0.62;;;;;26.40;1.00;;;;;;2279727;60;2027;-89
2021/09/27 11:18:05;148939.00;0.50;257.98;0.00;0.00;0.62;;;;;26.30;1.00;;;;;;2279931;60;1027;-90
2021/09/27 11:21:15;50708.00;0.17;88.41;0.00;0.00;0.62;;;;;26.60;1.00;;;;;;2267622;61;942;-90
2021/09/27 11:23:43;233062.00;0.78;402.82;0.00;0.00;0.62;;;;;26.60;1.00;;;;;;2261018;61;1462;-90
2021/09/27 11:26:33;92826.00;0.31;161.19;0.00;0.00;0.62;;;;;26.70;1.00;;;;;;2263536;61;980;-90
2021/09/27 11:29:30;54601.00;0.18;95.14;0.00;0.00;0.62;;;;;26.70;1.00;;;;;;2256900;61;1002;-90
2021/09/27 11:32:28;76378.00;0.25;132.78;0.00;0.00;0.62;;;;;26.60;1.00;;;;;;2263659;61;1302;-89
2021/09/27 11:35:04;141827.00;0.47;245.72;0.00;0.00;0.62;;;;;26.60;1.00;;;;;;2263661;61;1915;-91
2021/09/27 11:37:35;183198.00;0.61;317.00;0.00;0.00;0.62;;;;;26.40;1.00;;;;;;2263771;61;1011;-89
2021/09/27 11:40:29;185466.00;0.62;320.90;0.00;0.00;0.62;;;;;26.40;1.00;;;;;;2271702;61;955;-91
2021/09/27 11:43:11;53412.00;0.18;93.09;0.00;0.00;0.62;;;;;26.40;1.00;;;;;;2271652;61;1459;-90
2021/09/27 11:45:53;54149.00;0.18;94.36;0.00;0.00;0.62;;;;;26.60;1.00;;;;;;2284428;60;925;-90
2021/09/27 11:48:47;34196.00;0.11;59.85;0.00;0.00;0.62;;;;;26.90;1.00;;;;;;2277223;60;943;-90
2021/09/27 11:51:38;44078.00;0.15;76.94;0.00;0.00;0.62;;;;;27.00;1.00;;;;;;2280569;60;975;-90
2021/09/27 11:54:26;119058.00;0.40;206.46;6923.00;0.02;12.62;;;;;27.40;1.00;;;;;;2280490;60;1911;-90
2021/09/27 11:57:05;84723.00;0.28;147.19;0.00;0.00;0.62;;;;;27.10;1.00;;;;;;2284348;60;996;-89
2021/09/27 11:59:43;162279.00;0.54;280.97;0.00;0.00;0.62;;;;;27.50;1.00;;;;;;2284391;60;928;-90
2021/09/27 12:02:26;163502.00;0.55;283.07;0.00;0.00;0.62;;;;;27.60;1.00;;;;;;2284219;60;1339;-90
2021/09/27 12:05:19;18107.00;0.06;31.99;0.00;0.00;0.62;;;;;27.30;1.00;;;;;;2283849;60;1008;-90
2021/09/27 12:07:54;87187.00;0.29;151.45;0.00;0.00;0.62;;;;;27.60;1.00;;;;;;2259492;61;1097;-90
2021/09/27 12:10:29;143819.00;0.48;249.15;0.00;0.00;0.62;;;;;27.60;1.00;;;;;;2259154;61;1011;-91
2021/09/27 12:13:00;77328.00;0.26;134.42;0.00;0.00;0.62;;;;;27.80;1.00;;;;;;2252864;61;1375;-91
2021/09/27 12:15:38;201461.00;0.67;348.44;0.00;0.00;0.62;;;;;27.90;1.00;;;;;;2249646;61;2015;-91
2021/09/27 12:18:28;222276.00;0.74;384.26;0.00;0.00;0.62;;;;;27.80;1.00;;;;;;2259579;61;998;-90
2021/09/27 12:20:55;200971.00;0.67;347.60;0.00;0.00;0.62;;;;;27.80;1.00;;;;;;2259579;61;921;-90
2021/09/27 12:23:22;33742.00;0.11;59.06;0.00;0.00;0.62;;;;;27.80;1.00;;;;;;2249595;61;1353;-90
2021/09/27 12:25:53;129834.00;0.43;225.04;0.00;0.00;0.62;;;;;27.90;1.00;;;;;;2259385;61;976;-90
2021/09/27 12:28:32;223200.00;0.74;385.85;0.00;0.00;0.62;;;;;27.90;1.00;;;;;;2251505;61;1032;-89
2021/09/27 12:31:02;76094.00;0.25;132.29;0.00;0.00;0.62;;;;;28.10;1.00;;;;;;2251380;61;1159;-91
2021/09/27 12:33:32;70758.00;0.24;123.07;0.00;0.00;0.62;;;;;28.10;1.00;;;;;;2247381;61;1932;-90
2021/09/27 12:36:06;234310.00;0.78;404.96;0.00;0.00;0.62;;;;;28.10;1.00;;;;;;2247556;61;1026;-89
2021/09/27 12:38:34;9623.00;0.03;17.30;0.00;0.00;0.62;;;;;28.10;1.00;;;;;;2247483;61;984;-91
2021/09/27 12:41:04;179209.00;0.60;310.13;0.00;0.00;0.62;;;;;28.10;1.00;;;;;;2247297;61;1074;-88
2021/09/27 12:43:33;66442.00;0.22;115.61;0.00;0.00;0.62;;;;;28.30;1.00;;;;;;2250006;61;1417;-91
2021/09/27 12:46:07;75394.00;0.25;131.08;0.00;0.00;0.62;;;;;28.40;1.00;;;;;;2268947;61;994;-91
2021/09/27 12:48:38;64041.00;0.21;111.46;0.00;0.00;0.62;;;;;28.70;1.00;;;;;;2275329;61;1037;-90
2021/09/27 12:51:14;310417.00;1.03;535.83;44463.00;0.15;77.61;;;;;28.70;1.00;;;;;;2275670;61;1029;-91
2021/09/27 12:53:46;233749.00;0.78;404.00;0.00;0.00;0.62;;;;;28.80;1.00;;;;;;2275453;61;1921;-91
2021/09/27 12:56:18;229475.00;0.76;396.65;0.00;0.00;0.62;;;;;28.70;1.00;;;;;;2275549;61;1000;-89
2021/09/27 12:58:53;240378.00;0.80;415.40;0.00;0.00;0.62;;;;;28.70;1.00;;;;;;2275340;61;1041;-89
2021/09/27 13:01:30;101297.00;0.34;175.81;0.00;0.00;0.62;;;;;28.80;1.00;;;;;;2275345;61;884;-89
2021/09/27 13:04:04;248190.00;0.83;428.84;44063.00;0.15;76.92;;;;;29.00;1.00;;;;;;2279056;60;1530;-89
2021/09/27 13:06:34;206739.00;0.69;357.52;0.00;0.00;0.62;;;;;29.10;1.00;;;;;;2277016;60;1007;-89
2021/09/27 13:09:13;211526.00;0.71;365.76;0.00;0.00;0.62;;;;;28.30;1.00;;;;;;2283246;60;1018;-89
2021/09/27 13:11:49;136644.00;0.46;236.79;0.00;0.00;0.62;;;;;28.10;1.00;;;;;;2275550;61;972;-90
2021/09/27 13:14:27;24062.00;0.08;42.30;0.00;0.00;0.62;;;;;28.00;1.00;;;;;;2267425;61;1927;-89
2021/09/27 13:17:07;173826.00;0.58;300.86;1776.00;0.01;3.70;;;;;28.10;1.00;;;;;;2268254;61;993;-90
2021/09/27 13:19:39;103894.00;0.35;180.29;0.00;0.00;0.62;;;;;27.80;1.00;;;;;;2263275;61;989;-89
2021/09/27 13:22:13;146832.00;0.49;254.35;0.00;0.00;0.62;;;;;27.40;1.00;;;;;;2272171;61;1276;-89
2021/09/27 13:24:41;263083.00;0.88;454.45;0.00;0.00;0.62;;;;;27.00;1.00;;;;;;2272342;61;1018;-91
2021/09/27 13:27:16;235828.00;0.79;407.57;0.00;0.00;0.62;;;;;27.20;1.00;;;;;;2264037;61;1070;-88
2021/09/27 13:29:50;215541.00;0.72;372.67;0.00;0.00;0.62;;;;;27.60;1.00;;;;;;2264155;61;940;-90
2021/09/27 13:32:34;145335.00;0.48;251.77;0.00;0.00;0.62;;;;;27.50;1.00;;;;;;2264577;61;1424;-91
2021/09/27 13:35:25;26506.00;0.09;46.53;0.00;0.00;0.62;;;;;27.70;1.00;;;;;;2271726;61;2006;-90
2021/09/27 13:38:09;132304.00;0.44;229.30;0.00;0.00;0.62;;;;;27.80;1.00;;;;;;2253531;61;990;-90
2021/09/27 13:40:40;107674.00;0.36;186.82;0.00;0.00;0.62;;;;;27.90;1.00;;;;;;2253469;61;957;-89
2021/09/27 13:43:22;203356.00;0.68;351.70;0.00;0.00;0.62;;;;;27.80;1.00;;;;;;2260116;61;1396;-90
2021/09/27 13:45:51;345589.00;1.15;596.28;72442.00;0.24;125.98;;;;;27.20;1.00;;;;;;2260710;61;939;-88
2021/09/27 13:48:19;261137.00;0.87;451.10;0.00;0.00;0.62;;;;;26.70;1.00;;;;;;2264100;61;1020;-89
2021/09/27 13:50:50;225812.00;0.75;390.34;0.00;0.00;0.62;;;;;26.40;1.00;;;;;;2265050;61;1034;-90
2021/09/27 13:53:26;351768.00;1.17;606.90;0.00;0.00;0.62;;;;;26.10;1.00;;;;;;2272225;61;1340;-89
2021/09/27 13:55:54;272716.00;0.91;471.01;63017.00;0.21;109.69;;;;;26.20;1.00;;;;;;2259713;61;2293;-90